sensor_id;sensor_type;location;lat;lon;timestamp;P1;durP1;ratioP1;P2;durP2;ratioP2
40729;SDS011;26418;50.070;8.436;2023-04-29T00:00:18;2.78;;;2.25;;
40729;SDS011;26418;50.070;8.436;2023-04-29T00:02:44;3.75;;;2.10;;
40729;SDS011;26418;50.070;8.436;2023-04-29T00:05:10;5.70;;;2.55;;
40729;SDS011;26418;50.070;8.436;2023-04-29T00:07:35;6.40;;;2.78;;
40729;SDS011;26418;50.070;8.436;2023-04-29T00:10:00;3.42;;;2.22;;
40729;SDS011;26418;50.070;8.436;2023-04-29T00:12:26;2.95;;;2.50;;
40729;SDS011;26418;50.070;8.436;2023-04-29T00:14:54;4.47;;;2.30;;
40729;SDS011;26418;50.070;8.436;2023-04-29T00:17:19;5.20;;;2.45;;
40729;SDS011;26418;50.070;8.436;2023-04-29T00:19:44;4.93;;;2.40;;
40729;SDS011;26418;50.070;8.436;2023-04-29T00:22:10;2.47;;;2.10;;
40729;SDS011;26418;50.070;8.436;2023-04-29T00:24:35;3.08;;;1.77;;
40729;SDS011;26418;50.070;8.436;2023-04-29T00:27:00;4.63;;;1.98;;
40729;SDS011;26418;50.070;8.436;2023-04-29T00:29:29;3.83;;;2.38;;
40729;SDS011;26418;50.070;8.436;2023-04-29T00:31:55;6.25;;;2.20;;
40729;SDS011;26418;50.070;8.436;2023-04-29T00:34:20;3.05;;;1.85;;
40729;SDS011;26418;50.070;8.436;2023-04-29T00:36:46;3.47;;;2.25;;
40729;SDS011;26418;50.070;8.436;2023-04-29T00:39:11;3.72;;;2.25;;
40729;SDS011;26418;50.070;8.436;2023-04-29T00:41:37;3.90;;;2.22;;
40729;SDS011;26418;50.070;8.436;2023-04-29T00:44:03;2.85;;;2.08;;
40729;SDS011;26418;50.070;8.436;2023-04-29T00:46:28;3.53;;;2.08;;
40729;SDS011;26418;50.070;8.436;2023-04-29T00:48:53;4.60;;;1.63;;
40729;SDS011;26418;50.070;8.436;2023-04-29T00:51:19;1.80;;;1.60;;
40729;SDS011;26418;50.070;8.436;2023-04-29T00:53:45;2.00;;;1.60;;
40729;SDS011;26418;50.070;8.436;2023-04-29T00:56:11;4.45;;;2.78;;
40729;SDS011;26418;50.070;8.436;2023-04-29T00:58:38;1.83;;;1.50;;
40729;SDS011;26418;50.070;8.436;2023-04-29T01:01:04;2.40;;;1.83;;
40729;SDS011;26418;50.070;8.436;2023-04-29T01:03:30;2.45;;;1.75;;
40729;SDS011;26418;50.070;8.436;2023-04-29T01:06:08;5.70;;;2.28;;
40729;SDS011;26418;50.070;8.436;2023-04-29T01:09:14;3.33;;;2.28;;
40729;SDS011;26418;50.070;8.436;2023-04-29T01:12:25;3.03;;;2.00;;
40729;SDS011;26418;50.070;8.436;2023-04-29T01:14:47;3.95;;;1.67;;
40729;SDS011;26418;50.070;8.436;2023-04-29T01:17:19;3.53;;;1.58;;
40729;SDS011;26418;50.070;8.436;2023-04-29T01:19:51;2.30;;;1.67;;
40729;SDS011;26418;50.070;8.436;2023-04-29T01:22:21;1.90;;;1.70;;
40729;SDS011;26418;50.070;8.436;2023-04-29T01:24:47;5.45;;;2.22;;
40729;SDS011;26418;50.070;8.436;2023-04-29T01:29:57;6.78;;;1.85;;
40729;SDS011;26418;50.070;8.436;2023-04-29T01:32:36;2.08;;;1.88;;
40729;SDS011;26418;50.070;8.436;2023-04-29T01:43:51;5.75;;;1.88;;
40729;SDS011;26418;50.070;8.436;2023-04-29T01:46:18;5.22;;;2.20;;
40729;SDS011;26418;50.070;8.436;2023-04-29T01:48:44;3.38;;;2.60;;
40729;SDS011;26418;50.070;8.436;2023-04-29T01:51:10;2.67;;;1.92;;
40729;SDS011;26418;50.070;8.436;2023-04-29T01:53:35;2.55;;;1.88;;
40729;SDS011;26418;50.070;8.436;2023-04-29T01:56:02;2.13;;;1.88;;
40729;SDS011;26418;50.070;8.436;2023-04-29T01:58:27;9.55;;;2.72;;
40729;SDS011;26418;50.070;8.436;2023-04-29T02:00:53;2.78;;;1.80;;
40729;SDS011;26418;50.070;8.436;2023-04-29T02:03:19;3.10;;;2.10;;
40729;SDS011;26418;50.070;8.436;2023-04-29T02:05:44;4.55;;;2.25;;
40729;SDS011;26418;50.070;8.436;2023-04-29T02:08:10;3.38;;;2.15;;
40729;SDS011;26418;50.070;8.436;2023-04-29T02:10:35;3.40;;;2.80;;
40729;SDS011;26418;50.070;8.436;2023-04-29T02:13:00;3.65;;;2.78;;
40729;SDS011;26418;50.070;8.436;2023-04-29T02:15:26;3.53;;;2.70;;
40729;SDS011;26418;50.070;8.436;2023-04-29T02:17:52;3.17;;;2.53;;
40729;SDS011;26418;50.070;8.436;2023-04-29T02:20:18;5.20;;;3.35;;
40729;SDS011;26418;50.070;8.436;2023-04-29T02:22:44;5.18;;;2.92;;
40729;SDS011;26418;50.070;8.436;2023-04-29T02:25:09;4.25;;;3.35;;
40729;SDS011;26418;50.070;8.436;2023-04-29T02:27:35;3.75;;;3.17;;
40729;SDS011;26418;50.070;8.436;2023-04-29T02:30:00;3.00;;;2.40;;
40729;SDS011;26418;50.070;8.436;2023-04-29T02:32:26;8.13;;;3.47;;
40729;SDS011;26418;50.070;8.436;2023-04-29T02:34:51;4.00;;;2.92;;
40729;SDS011;26418;50.070;8.436;2023-04-29T02:37:17;5.32;;;3.10;;
40729;SDS011;26418;50.070;8.436;2023-04-29T02:39:42;4.78;;;3.30;;
40729;SDS011;26418;50.070;8.436;2023-04-29T02:42:08;5.43;;;3.70;;
40729;SDS011;26418;50.070;8.436;2023-04-29T02:44:33;6.05;;;4.00;;
40729;SDS011;26418;50.070;8.436;2023-04-29T02:46:58;5.07;;;3.53;;
40729;SDS011;26418;50.070;8.436;2023-04-29T02:49:24;5.30;;;3.67;;
40729;SDS011;26418;50.070;8.436;2023-04-29T02:51:49;6.70;;;4.07;;
40729;SDS011;26418;50.070;8.436;2023-04-29T02:54:15;6.22;;;4.32;;
40729;SDS011;26418;50.070;8.436;2023-04-29T02:56:41;5.43;;;4.65;;
40729;SDS011;26418;50.070;8.436;2023-04-29T02:59:06;7.70;;;4.40;;
40729;SDS011;26418;50.070;8.436;2023-04-29T03:01:32;6.82;;;4.65;;
40729;SDS011;26418;50.070;8.436;2023-04-29T03:03:57;7.47;;;5.28;;
40729;SDS011;26418;50.070;8.436;2023-04-29T03:06:23;8.93;;;5.78;;
40729;SDS011;26418;50.070;8.436;2023-04-29T03:08:48;10.45;;;6.15;;
40729;SDS011;26418;50.070;8.436;2023-04-29T03:11:13;8.40;;;5.20;;
40729;SDS011;26418;50.070;8.436;2023-04-29T03:13:38;8.68;;;5.32;;
40729;SDS011;26418;50.070;8.436;2023-04-29T03:16:04;9.27;;;6.03;;
40729;SDS011;26418;50.070;8.436;2023-04-29T03:18:30;9.27;;;6.32;;
40729;SDS011;26418;50.070;8.436;2023-04-29T03:20:56;11.23;;;7.65;;
40729;SDS011;26418;50.070;8.436;2023-04-29T03:23:21;13.50;;;8.15;;
40729;SDS011;26418;50.070;8.436;2023-04-29T03:25:46;11.32;;;8.63;;
40729;SDS011;26418;50.070;8.436;2023-04-29T03:28:12;12.73;;;9.38;;
40729;SDS011;26418;50.070;8.436;2023-04-29T03:30:37;13.27;;;9.35;;
40729;SDS011;26418;50.070;8.436;2023-04-29T03:33:02;19.23;;;10.05;;
40729;SDS011;26418;50.070;8.436;2023-04-29T03:35:28;13.38;;;9.80;;
40729;SDS011;26418;50.070;8.436;2023-04-29T03:37:53;14.73;;;10.30;;
40729;SDS011;26418;50.070;8.436;2023-04-29T03:40:18;18.77;;;10.68;;
40729;SDS011;26418;50.070;8.436;2023-04-29T03:42:44;16.83;;;10.80;;
40729;SDS011;26418;50.070;8.436;2023-04-29T03:45:09;18.00;;;11.40;;
40729;SDS011;26418;50.070;8.436;2023-04-29T03:47:37;14.68;;;10.50;;
40729;SDS011;26418;50.070;8.436;2023-04-29T03:50:02;17.23;;;11.20;;
40729;SDS011;26418;50.070;8.436;2023-04-29T03:52:28;15.75;;;10.48;;
40729;SDS011;26418;50.070;8.436;2023-04-29T03:54:54;13.57;;;9.15;;
40729;SDS011;26418;50.070;8.436;2023-04-29T03:57:19;15.15;;;10.38;;
40729;SDS011;26418;50.070;8.436;2023-04-29T03:59:44;16.15;;;10.45;;
40729;SDS011;26418;50.070;8.436;2023-04-29T04:02:14;14.75;;;9.82;;
40729;SDS011;26418;50.070;8.436;2023-04-29T04:04:39;16.38;;;10.15;;
40729;SDS011;26418;50.070;8.436;2023-04-29T04:07:05;18.45;;;10.50;;
40729;SDS011;26418;50.070;8.436;2023-04-29T04:09:30;16.98;;;10.98;;
40729;SDS011;26418;50.070;8.436;2023-04-29T04:11:57;18.20;;;10.88;;
40729;SDS011;26418;50.070;8.436;2023-04-29T04:14:22;17.23;;;10.40;;
40729;SDS011;26418;50.070;8.436;2023-04-29T04:16:48;15.52;;;9.75;;
40729;SDS011;26418;50.070;8.436;2023-04-29T04:19:14;16.85;;;10.35;;
40729;SDS011;26418;50.070;8.436;2023-04-29T04:21:40;20.70;;;11.05;;
40729;SDS011;26418;50.070;8.436;2023-04-29T04:24:06;17.60;;;11.27;;
40729;SDS011;26418;50.070;8.436;2023-04-29T04:26:31;21.75;;;12.18;;
40729;SDS011;26418;50.070;8.436;2023-04-29T04:28:57;18.40;;;12.25;;
40729;SDS011;26418;50.070;8.436;2023-04-29T04:31:22;18.08;;;11.88;;
40729;SDS011;26418;50.070;8.436;2023-04-29T04:33:48;20.30;;;12.30;;
40729;SDS011;26418;50.070;8.436;2023-04-29T04:36:13;23.33;;;13.05;;
40729;SDS011;26418;50.070;8.436;2023-04-29T04:38:38;22.50;;;13.45;;
40729;SDS011;26418;50.070;8.436;2023-04-29T04:41:06;21.42;;;14.52;;
40729;SDS011;26418;50.070;8.436;2023-04-29T04:43:32;24.50;;;13.93;;
40729;SDS011;26418;50.070;8.436;2023-04-29T04:45:57;23.52;;;13.77;;
40729;SDS011;26418;50.070;8.436;2023-04-29T04:48:22;22.88;;;13.25;;
40729;SDS011;26418;50.070;8.436;2023-04-29T04:50:48;24.23;;;13.80;;
40729;SDS011;26418;50.070;8.436;2023-04-29T04:53:13;25.85;;;13.80;;
40729;SDS011;26418;50.070;8.436;2023-04-29T04:55:38;26.67;;;13.20;;
40729;SDS011;26418;50.070;8.436;2023-04-29T04:58:04;23.58;;;13.70;;
40729;SDS011;26418;50.070;8.436;2023-04-29T05:00:29;19.45;;;12.20;;
40729;SDS011;26418;50.070;8.436;2023-04-29T05:02:54;22.42;;;13.27;;
40729;SDS011;26418;50.070;8.436;2023-04-29T05:05:20;20.60;;;12.27;;
40729;SDS011;26418;50.070;8.436;2023-04-29T05:07:45;22.95;;;12.98;;
40729;SDS011;26418;50.070;8.436;2023-04-29T05:10:11;20.92;;;11.88;;
40729;SDS011;26418;50.070;8.436;2023-04-29T05:12:36;18.95;;;11.35;;
40729;SDS011;26418;50.070;8.436;2023-04-29T05:15:02;20.15;;;11.00;;
40729;SDS011;26418;50.070;8.436;2023-04-29T05:17:28;22.25;;;11.35;;
40729;SDS011;26418;50.070;8.436;2023-04-29T05:19:54;18.13;;;9.77;;
40729;SDS011;26418;50.070;8.436;2023-04-29T05:22:20;18.00;;;10.18;;
40729;SDS011;26418;50.070;8.436;2023-04-29T05:24:45;13.63;;;9.13;;
40729;SDS011;26418;50.070;8.436;2023-04-29T05:27:12;20.15;;;10.18;;
40729;SDS011;26418;50.070;8.436;2023-04-29T05:29:38;14.90;;;9.13;;
40729;SDS011;26418;50.070;8.436;2023-04-29T05:32:03;19.63;;;8.55;;
40729;SDS011;26418;50.070;8.436;2023-04-29T05:34:31;14.73;;;8.63;;
40729;SDS011;26418;50.070;8.436;2023-04-29T05:36:57;12.07;;;6.80;;
40729;SDS011;26418;50.070;8.436;2023-04-29T05:39:22;12.43;;;7.20;;
40729;SDS011;26418;50.070;8.436;2023-04-29T05:41:47;14.48;;;7.75;;
40729;SDS011;26418;50.070;8.436;2023-04-29T05:44:13;18.02;;;7.88;;
40729;SDS011;26418;50.070;8.436;2023-04-29T05:46:38;14.95;;;7.75;;
40729;SDS011;26418;50.070;8.436;2023-04-29T05:49:04;13.52;;;6.70;;
40729;SDS011;26418;50.070;8.436;2023-04-29T05:51:29;11.73;;;6.70;;
40729;SDS011;26418;50.070;8.436;2023-04-29T05:53:55;12.77;;;7.22;;
40729;SDS011;26418;50.070;8.436;2023-04-29T05:56:21;13.98;;;7.70;;
40729;SDS011;26418;50.070;8.436;2023-04-29T05:58:47;15.18;;;8.10;;
40729;SDS011;26418;50.070;8.436;2023-04-29T06:01:12;13.05;;;7.25;;
40729;SDS011;26418;50.070;8.436;2023-04-29T06:03:38;12.23;;;6.95;;
40729;SDS011;26418;50.070;8.436;2023-04-29T06:06:03;11.02;;;7.00;;
40729;SDS011;26418;50.070;8.436;2023-04-29T06:08:28;12.48;;;6.50;;
40729;SDS011;26418;50.070;8.436;2023-04-29T06:10:54;11.60;;;6.13;;
40729;SDS011;26418;50.070;8.436;2023-04-29T06:13:19;10.25;;;6.10;;
40729;SDS011;26418;50.070;8.436;2023-04-29T06:15:45;10.18;;;5.65;;
40729;SDS011;26418;50.070;8.436;2023-04-29T06:18:10;11.77;;;5.28;;
40729;SDS011;26418;50.070;8.436;2023-04-29T06:20:36;9.38;;;5.20;;
40729;SDS011;26418;50.070;8.436;2023-04-29T06:23:01;11.05;;;6.32;;
40729;SDS011;26418;50.070;8.436;2023-04-29T06:25:26;8.00;;;5.10;;
40729;SDS011;26418;50.070;8.436;2023-04-29T06:27:52;7.28;;;4.72;;
40729;SDS011;26418;50.070;8.436;2023-04-29T06:30:17;8.38;;;5.75;;
40729;SDS011;26418;50.070;8.436;2023-04-29T06:32:43;13.23;;;7.10;;
40729;SDS011;26418;50.070;8.436;2023-04-29T06:35:08;9.52;;;5.85;;
40729;SDS011;26418;50.070;8.436;2023-04-29T06:37:34;9.35;;;5.75;;
40729;SDS011;26418;50.070;8.436;2023-04-29T06:39:59;11.23;;;5.40;;
40729;SDS011;26418;50.070;8.436;2023-04-29T06:42:25;8.77;;;5.55;;
40729;SDS011;26418;50.070;8.436;2023-04-29T06:44:50;10.18;;;5.25;;
40729;SDS011;26418;50.070;8.436;2023-04-29T06:47:15;11.23;;;5.55;;
40729;SDS011;26418;50.070;8.436;2023-04-29T06:49:41;7.65;;;5.63;;
40729;SDS011;26418;50.070;8.436;2023-04-29T06:52:07;7.85;;;5.22;;
40729;SDS011;26418;50.070;8.436;2023-04-29T06:54:33;7.80;;;5.43;;
40729;SDS011;26418;50.070;8.436;2023-04-29T06:56:58;8.52;;;6.50;;
40729;SDS011;26418;50.070;8.436;2023-04-29T06:59:23;6.72;;;4.43;;
40729;SDS011;26418;50.070;8.436;2023-04-29T07:01:49;10.10;;;5.43;;
40729;SDS011;26418;50.070;8.436;2023-04-29T07:04:16;10.32;;;5.80;;
40729;SDS011;26418;50.070;8.436;2023-04-29T07:06:41;11.60;;;6.07;;
40729;SDS011;26418;50.070;8.436;2023-04-29T07:09:10;10.35;;;6.00;;
40729;SDS011;26418;50.070;8.436;2023-04-29T07:11:36;11.55;;;6.85;;
40729;SDS011;26418;50.070;8.436;2023-04-29T07:14:01;13.23;;;7.30;;
40729;SDS011;26418;50.070;8.436;2023-04-29T07:16:26;10.02;;;5.65;;
40729;SDS011;26418;50.070;8.436;2023-04-29T07:18:52;7.55;;;5.43;;
40729;SDS011;26418;50.070;8.436;2023-04-29T07:21:17;9.07;;;5.60;;
40729;SDS011;26418;50.070;8.436;2023-04-29T07:23:43;10.63;;;6.25;;
40729;SDS011;26418;50.070;8.436;2023-04-29T07:26:12;9.20;;;6.60;;
40729;SDS011;26418;50.070;8.436;2023-04-29T07:28:39;7.85;;;5.47;;
40729;SDS011;26418;50.070;8.436;2023-04-29T07:31:06;10.80;;;5.70;;
40729;SDS011;26418;50.070;8.436;2023-04-29T07:33:32;8.13;;;5.25;;
40729;SDS011;26418;50.070;8.436;2023-04-29T07:35:57;8.00;;;6.35;;
40729;SDS011;26418;50.070;8.436;2023-04-29T07:38:23;9.75;;;6.38;;
40729;SDS011;26418;50.070;8.436;2023-04-29T07:40:48;14.85;;;6.18;;
40729;SDS011;26418;50.070;8.436;2023-04-29T07:43:14;6.93;;;5.22;;
40729;SDS011;26418;50.070;8.436;2023-04-29T07:45:39;10.80;;;6.25;;
40729;SDS011;26418;50.070;8.436;2023-04-29T07:48:05;6.47;;;4.63;;
40729;SDS011;26418;50.070;8.436;2023-04-29T07:50:33;10.52;;;4.95;;
40729;SDS011;26418;50.070;8.436;2023-04-29T07:52:58;8.73;;;5.22;;
40729;SDS011;26418;50.070;8.436;2023-04-29T07:55:26;6.13;;;4.40;;
40729;SDS011;26418;50.070;8.436;2023-04-29T07:57:51;10.85;;;5.40;;
40729;SDS011;26418;50.070;8.436;2023-04-29T08:00:17;11.88;;;4.88;;
40729;SDS011;26418;50.070;8.436;2023-04-29T08:02:43;8.32;;;5.00;;
40729;SDS011;26418;50.070;8.436;2023-04-29T08:05:08;9.43;;;4.95;;
40729;SDS011;26418;50.070;8.436;2023-04-29T08:07:34;8.30;;;5.10;;
40729;SDS011;26418;50.070;8.436;2023-04-29T08:09:59;10.88;;;5.95;;
40729;SDS011;26418;50.070;8.436;2023-04-29T08:12:24;10.98;;;5.35;;
40729;SDS011;26418;50.070;8.436;2023-04-29T08:14:50;8.15;;;4.95;;
40729;SDS011;26418;50.070;8.436;2023-04-29T08:17:15;7.80;;;4.68;;
40729;SDS011;26418;50.070;8.436;2023-04-29T08:19:40;5.65;;;4.03;;
40729;SDS011;26418;50.070;8.436;2023-04-29T08:22:05;9.88;;;5.25;;
40729;SDS011;26418;50.070;8.436;2023-04-29T08:24:31;6.70;;;4.68;;
40729;SDS011;26418;50.070;8.436;2023-04-29T08:26:58;9.05;;;5.18;;
40729;SDS011;26418;50.070;8.436;2023-04-29T08:29:23;8.02;;;4.75;;
40729;SDS011;26418;50.070;8.436;2023-04-29T08:31:49;7.32;;;4.30;;
40729;SDS011;26418;50.070;8.436;2023-04-29T08:34:14;7.28;;;4.53;;
40729;SDS011;26418;50.070;8.436;2023-04-29T08:36:40;8.13;;;4.95;;
40729;SDS011;26418;50.070;8.436;2023-04-29T08:39:05;5.78;;;4.20;;
40729;SDS011;26418;50.070;8.436;2023-04-29T08:41:31;6.95;;;3.92;;
40729;SDS011;26418;50.070;8.436;2023-04-29T08:43:58;5.47;;;4.32;;
40729;SDS011;26418;50.070;8.436;2023-04-29T08:46:24;5.63;;;4.13;;
40729;SDS011;26418;50.070;8.436;2023-04-29T08:48:51;6.60;;;4.28;;
40729;SDS011;26418;50.070;8.436;2023-04-29T08:51:17;6.80;;;3.90;;
40729;SDS011;26418;50.070;8.436;2023-04-29T08:53:42;5.18;;;3.67;;
40729;SDS011;26418;50.070;8.436;2023-04-29T08:56:08;5.28;;;3.63;;
40729;SDS011;26418;50.070;8.436;2023-04-29T08:58:40;4.30;;;3.28;;
40729;SDS011;26418;50.070;8.436;2023-04-29T09:01:07;5.95;;;3.75;;
40729;SDS011;26418;50.070;8.436;2023-04-29T09:03:57;5.20;;;3.85;;
40729;SDS011;26418;50.070;8.436;2023-04-29T09:06:29;6.93;;;4.53;;
40729;SDS011;26418;50.070;8.436;2023-04-29T09:08:54;5.20;;;3.78;;
40729;SDS011;26418;50.070;8.436;2023-04-29T09:11:20;5.35;;;3.65;;
40729;SDS011;26418;50.070;8.436;2023-04-29T09:13:46;6.25;;;4.03;;
40729;SDS011;26418;50.070;8.436;2023-04-29T09:16:11;8.02;;;5.05;;
40729;SDS011;26418;50.070;8.436;2023-04-29T09:18:47;8.20;;;4.43;;
40729;SDS011;26418;50.070;8.436;2023-04-29T09:23:47;8.73;;;5.18;;
40729;SDS011;26418;50.070;8.436;2023-04-29T09:26:16;9.75;;;4.68;;
40729;SDS011;26418;50.070;8.436;2023-04-29T09:28:42;9.32;;;5.10;;
40729;SDS011;26418;50.070;8.436;2023-04-29T09:31:12;8.63;;;5.20;;
40729;SDS011;26418;50.070;8.436;2023-04-29T09:33:48;8.77;;;4.80;;
40729;SDS011;26418;50.070;8.436;2023-04-29T09:39:16;9.65;;;5.22;;
40729;SDS011;26418;50.070;8.436;2023-04-29T09:44:14;11.00;;;5.00;;
40729;SDS011;26418;50.070;8.436;2023-04-29T09:46:40;11.65;;;5.72;;
40729;SDS011;26418;50.070;8.436;2023-04-29T09:49:20;6.90;;;4.95;;
40729;SDS011;26418;50.070;8.436;2023-04-29T09:51:57;6.88;;;4.75;;
40729;SDS011;26418;50.070;8.436;2023-04-29T09:54:24;6.22;;;3.85;;
40729;SDS011;26418;50.070;8.436;2023-04-29T09:56:54;8.68;;;5.18;;
40729;SDS011;26418;50.070;8.436;2023-04-29T09:59:20;8.27;;;5.32;;
40729;SDS011;26418;50.070;8.436;2023-04-29T10:01:50;8.50;;;4.80;;
40729;SDS011;26418;50.070;8.436;2023-04-29T10:04:18;11.77;;;5.18;;
40729;SDS011;26418;50.070;8.436;2023-04-29T10:06:46;12.07;;;5.47;;
40729;SDS011;26418;50.070;8.436;2023-04-29T10:09:13;11.80;;;5.30;;
40729;SDS011;26418;50.070;8.436;2023-04-29T10:11:40;6.82;;;4.68;;
40729;SDS011;26418;50.070;8.436;2023-04-29T10:14:06;6.95;;;4.18;;
40729;SDS011;26418;50.070;8.436;2023-04-29T10:16:47;8.55;;;5.10;;
40729;SDS011;26418;50.070;8.436;2023-04-29T10:19:23;6.78;;;4.82;;
40729;SDS011;26418;50.070;8.436;2023-04-29T10:21:51;8.38;;;4.45;;
40729;SDS011;26418;50.070;8.436;2023-04-29T10:24:19;8.13;;;4.93;;
40729;SDS011;26418;50.070;8.436;2023-04-29T10:26:46;8.40;;;5.22;;
40729;SDS011;26418;50.070;8.436;2023-04-29T10:29:16;6.75;;;4.28;;
40729;SDS011;26418;50.070;8.436;2023-04-29T10:31:42;6.28;;;5.13;;
40729;SDS011;26418;50.070;8.436;2023-04-29T10:34:08;8.75;;;4.97;;
40729;SDS011;26418;50.070;8.436;2023-04-29T10:36:35;6.80;;;5.15;;
40729;SDS011;26418;50.070;8.436;2023-04-29T10:39:02;7.07;;;4.63;;
40729;SDS011;26418;50.070;8.436;2023-04-29T10:41:36;7.28;;;4.43;;
40729;SDS011;26418;50.070;8.436;2023-04-29T10:44:10;5.65;;;3.97;;
40729;SDS011;26418;50.070;8.436;2023-04-29T10:46:35;7.85;;;4.40;;
40729;SDS011;26418;50.070;8.436;2023-04-29T10:49:02;6.20;;;4.50;;
40729;SDS011;26418;50.070;8.436;2023-04-29T10:53:57;7.40;;;4.65;;
40729;SDS011;26418;50.070;8.436;2023-04-29T10:56:23;7.88;;;4.63;;
40729;SDS011;26418;50.070;8.436;2023-04-29T10:59:03;10.13;;;6.03;;
40729;SDS011;26418;50.070;8.436;2023-04-29T11:01:42;5.68;;;4.10;;
40729;SDS011;26418;50.070;8.436;2023-04-29T11:04:11;11.43;;;4.97;;
40729;SDS011;26418;50.070;8.436;2023-04-29T11:12:04;5.65;;;3.80;;
40729;SDS011;26418;50.070;8.436;2023-04-29T11:14:36;4.30;;;3.15;;
40729;SDS011;26418;50.070;8.436;2023-04-29T11:17:14;5.75;;;3.38;;
40729;SDS011;26418;50.070;8.436;2023-04-29T11:19:44;5.72;;;3.40;;
40729;SDS011;26418;50.070;8.436;2023-04-29T11:22:23;3.88;;;2.70;;
40729;SDS011;26418;50.070;8.436;2023-04-29T11:25:05;5.47;;;2.42;;
40729;SDS011;26418;50.070;8.436;2023-04-29T11:27:32;3.92;;;2.30;;
40729;SDS011;26418;50.070;8.436;2023-04-29T11:29:59;4.03;;;2.35;;
40729;SDS011;26418;50.070;8.436;2023-04-29T11:32:29;4.22;;;2.25;;
40729;SDS011;26418;50.070;8.436;2023-04-29T11:35:12;3.28;;;2.20;;
40729;SDS011;26418;50.070;8.436;2023-04-29T11:37:40;4.07;;;2.05;;
40729;SDS011;26418;50.070;8.436;2023-04-29T11:40:07;4.35;;;2.20;;
40729;SDS011;26418;50.070;8.436;2023-04-29T11:42:33;3.20;;;1.98;;
40729;SDS011;26418;50.070;8.436;2023-04-29T11:45:00;2.30;;;1.75;;
40729;SDS011;26418;50.070;8.436;2023-04-29T11:47:27;3.22;;;1.80;;
40729;SDS011;26418;50.070;8.436;2023-04-29T11:50:00;2.08;;;1.67;;
40729;SDS011;26418;50.070;8.436;2023-04-29T11:52:27;1.95;;;1.60;;
40729;SDS011;26418;50.070;8.436;2023-04-29T11:54:52;3.90;;;2.78;;
40729;SDS011;26418;50.070;8.436;2023-04-29T11:57:18;3.92;;;2.13;;
40729;SDS011;26418;50.070;8.436;2023-04-29T11:59:43;3.80;;;2.42;;
40729;SDS011;26418;50.070;8.436;2023-04-29T12:02:11;3.08;;;1.95;;
40729;SDS011;26418;50.070;8.436;2023-04-29T12:04:46;3.97;;;2.40;;
40729;SDS011;26418;50.070;8.436;2023-04-29T12:07:15;2.72;;;2.22;;
40729;SDS011;26418;50.070;8.436;2023-04-29T12:09:41;4.15;;;1.75;;
40729;SDS011;26418;50.070;8.436;2023-04-29T12:12:08;2.63;;;1.92;;
40729;SDS011;26418;50.070;8.436;2023-04-29T12:14:33;3.15;;;1.70;;
40729;SDS011;26418;50.070;8.436;2023-04-29T12:16:59;1.85;;;1.40;;
40729;SDS011;26418;50.070;8.436;2023-04-29T12:19:24;2.72;;;1.90;;
40729;SDS011;26418;50.070;8.436;2023-04-29T12:21:50;2.10;;;1.65;;
40729;SDS011;26418;50.070;8.436;2023-04-29T12:24:16;2.92;;;2.40;;
40729;SDS011;26418;50.070;8.436;2023-04-29T12:26:43;3.25;;;2.38;;
40729;SDS011;26418;50.070;8.436;2023-04-29T12:29:09;4.78;;;2.10;;
40729;SDS011;26418;50.070;8.436;2023-04-29T12:31:35;2.53;;;2.25;;
40729;SDS011;26418;50.070;8.436;2023-04-29T12:34:02;2.80;;;2.08;;
40729;SDS011;26418;50.070;8.436;2023-04-29T12:36:27;3.25;;;1.80;;
40729;SDS011;26418;50.070;8.436;2023-04-29T12:38:53;2.20;;;1.98;;
40729;SDS011;26418;50.070;8.436;2023-04-29T12:41:34;2.72;;;1.85;;
40729;SDS011;26418;50.070;8.436;2023-04-29T12:44:00;2.28;;;1.90;;
40729;SDS011;26418;50.070;8.436;2023-04-29T12:46:26;3.30;;;2.65;;
40729;SDS011;26418;50.070;8.436;2023-04-29T12:48:51;2.55;;;2.10;;
40729;SDS011;26418;50.070;8.436;2023-04-29T12:51:17;2.83;;;2.22;;
40729;SDS011;26418;50.070;8.436;2023-04-29T12:53:42;8.05;;;2.55;;
40729;SDS011;26418;50.070;8.436;2023-04-29T12:56:10;5.85;;;2.45;;
40729;SDS011;26418;50.070;8.436;2023-04-29T12:58:37;2.88;;;2.55;;
40729;SDS011;26418;50.070;8.436;2023-04-29T13:01:02;2.60;;;2.25;;
40729;SDS011;26418;50.070;8.436;2023-04-29T13:03:27;2.65;;;2.30;;
40729;SDS011;26418;50.070;8.436;2023-04-29T13:05:53;3.90;;;2.17;;
40729;SDS011;26418;50.070;8.436;2023-04-29T13:08:18;6.13;;;2.55;;
40729;SDS011;26418;50.070;8.436;2023-04-29T13:10:44;8.32;;;2.97;;
40729;SDS011;26418;50.070;8.436;2023-04-29T13:13:09;3.60;;;2.38;;
40729;SDS011;26418;50.070;8.436;2023-04-29T13:15:35;3.25;;;2.38;;
40729;SDS011;26418;50.070;8.436;2023-04-29T13:18:03;3.13;;;2.38;;
40729;SDS011;26418;50.070;8.436;2023-04-29T13:20:28;5.30;;;2.47;;
40729;SDS011;26418;50.070;8.436;2023-04-29T13:22:54;2.22;;;2.03;;
40729;SDS011;26418;50.070;8.436;2023-04-29T13:25:19;2.80;;;2.47;;
40729;SDS011;26418;50.070;8.436;2023-04-29T13:27:44;2.70;;;2.38;;
40729;SDS011;26418;50.070;8.436;2023-04-29T13:30:10;3.70;;;2.80;;
40729;SDS011;26418;50.070;8.436;2023-04-29T13:32:35;3.10;;;2.50;;
40729;SDS011;26418;50.070;8.436;2023-04-29T13:35:01;5.28;;;2.33;;
40729;SDS011;26418;50.070;8.436;2023-04-29T13:37:28;4.18;;;2.63;;
40729;SDS011;26418;50.070;8.436;2023-04-29T13:39:53;3.53;;;2.78;;
40729;SDS011;26418;50.070;8.436;2023-04-29T13:42:18;3.38;;;2.75;;
40729;SDS011;26418;50.070;8.436;2023-04-29T13:44:44;4.25;;;2.97;;
40729;SDS011;26418;50.070;8.436;2023-04-29T13:47:10;3.78;;;2.65;;
40729;SDS011;26418;50.070;8.436;2023-04-29T13:49:36;3.40;;;2.45;;
40729;SDS011;26418;50.070;8.436;2023-04-29T13:52:03;2.88;;;2.35;;
40729;SDS011;26418;50.070;8.436;2023-04-29T13:54:28;5.32;;;2.97;;
40729;SDS011;26418;50.070;8.436;2023-04-29T13:56:54;4.57;;;2.97;;
40729;SDS011;26418;50.070;8.436;2023-04-29T13:59:19;5.38;;;3.35;;
40729;SDS011;26418;50.070;8.436;2023-04-29T14:01:44;3.50;;;2.70;;
40729;SDS011;26418;50.070;8.436;2023-04-29T14:04:10;3.78;;;3.03;;
40729;SDS011;26418;50.070;8.436;2023-04-29T14:06:35;3.58;;;3.08;;
40729;SDS011;26418;50.070;8.436;2023-04-29T14:09:01;4.03;;;2.95;;
40729;SDS011;26418;50.070;8.436;2023-04-29T14:11:27;4.03;;;2.30;;
40729;SDS011;26418;50.070;8.436;2023-04-29T14:13:52;3.08;;;2.78;;
40729;SDS011;26418;50.070;8.436;2023-04-29T14:16:18;3.67;;;2.80;;
40729;SDS011;26418;50.070;8.436;2023-04-29T14:18:44;4.88;;;3.05;;
40729;SDS011;26418;50.070;8.436;2023-04-29T14:21:09;5.40;;;3.55;;
40729;SDS011;26418;50.070;8.436;2023-04-29T14:23:35;4.00;;;2.67;;
40729;SDS011;26418;50.070;8.436;2023-04-29T14:26:00;4.75;;;2.83;;
40729;SDS011;26418;50.070;8.436;2023-04-29T14:28:26;3.70;;;2.70;;
40729;SDS011;26418;50.070;8.436;2023-04-29T14:30:51;3.22;;;2.63;;
40729;SDS011;26418;50.070;8.436;2023-04-29T14:33:16;4.53;;;2.97;;
40729;SDS011;26418;50.070;8.436;2023-04-29T14:35:41;3.30;;;2.90;;
40729;SDS011;26418;50.070;8.436;2023-04-29T14:38:07;3.47;;;2.83;;
40729;SDS011;26418;50.070;8.436;2023-04-29T14:40:32;8.35;;;5.38;;
40729;SDS011;26418;50.070;8.436;2023-04-29T14:42:58;4.35;;;3.28;;
40729;SDS011;26418;50.070;8.436;2023-04-29T14:45:23;4.43;;;3.08;;
40729;SDS011;26418;50.070;8.436;2023-04-29T14:47:48;5.25;;;2.60;;
40729;SDS011;26418;50.070;8.436;2023-04-29T14:50:13;6.68;;;3.50;;
40729;SDS011;26418;50.070;8.436;2023-04-29T14:52:40;5.18;;;3.78;;
40729;SDS011;26418;50.070;8.436;2023-04-29T14:55:05;3.67;;;3.05;;
40729;SDS011;26418;50.070;8.436;2023-04-29T14:57:31;4.55;;;3.53;;
40729;SDS011;26418;50.070;8.436;2023-04-29T14:59:57;5.05;;;3.28;;
40729;SDS011;26418;50.070;8.436;2023-04-29T15:02:22;5.25;;;3.75;;
40729;SDS011;26418;50.070;8.436;2023-04-29T15:04:48;4.97;;;4.10;;
40729;SDS011;26418;50.070;8.436;2023-04-29T15:07:13;4.97;;;3.83;;